Time;durP1;ratioP1;P1;durP2;ratioP2;P2;SDS_P1;SDS_P2;PMS_P1;PMS_P2;Temp;Humidity;BMP_temperature;BMP_pressure;BME280_temperature;BME280_humidity;BME280_pressure;Samples;Min_cycle;Max_cycle;Signal;HPM_P1;HPM_P2
2021/07/21 04:17:33;;;;;;;15.40;10.73;;;;;;;12.85;90.85;99234.06;5000802;23;20062;-74
2021/07/21 04:20:00;;;;;;;19.02;10.95;;;;;;;12.88;91.06;99236.63;4936193;29;20047;-74
2021/07/21 04:22:26;;;;;;;16.23;10.75;;;;;;;12.89;91.54;99238.34;4936177;29;20036;-74
2021/07/21 04:24:53;;;;;;;19.02;12.40;;;;;;;12.74;92.04;99233.44;4936015;29;20044;-74
2021/07/21 04:27:19;;;;;;;15.10;10.40;;;;;;;12.95;90.60;99230.41;4936001;29;20446;-74
2021/07/21 04:29:46;;;;;;;18.15;10.52;;;;;;;12.80;91.18;99228.13;4936263;29;20020;-73
2021/07/21 04:32:13;;;;;;;13.32;10.15;;;;;;;12.80;91.47;99230.72;4935881;29;20393;-75
2021/07/21 04:34:40;;;;;;;15.73;11.38;;;;;;;12.82;91.53;99234.16;4935861;29;20027;-74
2021/07/21 04:37:06;;;;;;;18.92;11.38;;;;;;;12.95;91.35;99230.41;4935761;29;20027;-75
2021/07/21 04:39:32;;;;;;;17.67;11.82;;;;;;;13.16;90.90;99233.47;4935861;29;20445;-74
2021/07/21 04:41:58;;;;;;;19.05;11.35;;;;;;;13.16;90.07;99238.69;4935779;29;20019;-77
2021/07/21 04:44:23;;;;;;;19.30;11.75;;;;;;;13.21;90.09;99236.84;4935786;29;20507;-74
2021/07/21 04:46:52;;;;;;;15.82;11.48;;;;;;;13.21;89.68;99239.44;4935464;29;20063;-74
2021/07/21 04:49:19;;;;;;;14.70;11.13;;;;;;;13.29;89.93;99238.38;4935782;29;20020;-75
2021/07/21 04:51:47;;;;;;;15.90;11.68;;;;;;;13.52;89.43;99243.09;4935606;29;20038;-75
2021/07/21 04:54:12;;;;;;;17.98;11.20;;;;;;;13.71;88.71;99243.53;4935394;29;20035;-74
2021/07/21 04:56:38;;;;;;;17.75;12.20;;;;;;;13.41;88.53;99250.28;4935314;29;20027;-74
2021/07/21 04:59:03;;;;;;;18.17;11.88;;;;;;;13.44;88.96;99242.44;4935453;29;20028;-75
2021/07/21 05:01:29;;;;;;;19.40;11.65;;;;;;;13.35;89.51;99248.69;4935254;29;20027;-75
2021/07/21 05:03:54;;;;;;;18.05;11.63;;;;;;;13.46;89.23;99242.38;4935433;29;20051;-74
2021/07/21 05:06:23;;;;;;;16.63;12.18;;;;;;;13.32;89.64;99243.53;4935109;29;20149;-75
2021/07/21 05:08:49;;;;;;;21.13;11.30;;;;;;;13.49;88.79;99248.41;4935318;29;20030;-74
2021/07/21 05:11:15;;;;;;;16.60;11.65;;;;;;;13.70;87.90;99251.41;4935223;29;20706;-75
2021/07/21 05:13:40;;;;;;;23.77;11.38;;;;;;;13.58;88.42;99248.16;4935324;29;20035;-75
2021/07/21 05:16:10;;;;;;;17.35;11.30;;;;;;;13.61;88.31;99253.31;4934959;29;20086;-74
2021/07/21 05:18:35;;;;;;;18.70;12.50;;;;;;;13.72;88.11;99255.66;4935275;29;20099;-77
2021/07/21 05:21:05;;;;;;;18.83;11.68;;;;;;;13.80;87.41;99258.94;4935049;29;20406;-76
2021/07/21 05:23:32;;;;;;;24.30;11.45;;;;;;;13.69;88.16;99262.72;4935050;29;20027;-75
2021/07/21 05:25:58;;;;;;;32.35;12.45;;;;;;;13.81;87.48;99265.00;4934588;29;20083;-76
2021/07/21 05:28:24;;;;;;;15.68;11.10;;;;;;;13.94;86.80;99266.44;4934852;29;20032;-75
2021/07/21 05:30:50;;;;;;;26.75;12.20;;;;;;;14.14;86.48;99271.19;4935020;29;20091;-74
2021/07/21 05:33:15;;;;;;;15.18;10.15;;;;;;;14.32;84.68;99262.06;4934912;29;20027;-74
2021/07/21 05:35:41;;;;;;;18.02;11.68;;;;;;;14.34;85.61;99278.50;4934848;29;20028;-74
2021/07/21 05:38:07;;;;;;;20.30;11.02;;;;;;;14.60;83.65;99270.91;4934743;29;20032;-75
2021/07/21 05:40:32;;;;;;;17.52;11.35;;;;;;;14.78;83.59;99271.28;4934871;29;20130;-74
2021/07/21 05:42:57;;;;;;;19.08;11.32;;;;;;;14.67;83.55;99273.34;4935021;29;20020;-75
2021/07/21 05:45:23;;;;;;;17.42;12.05;;;;;;;14.70;83.56;99271.53;4934710;29;20032;-74
2021/07/21 05:47:48;;;;;;;18.23;11.65;;;;;;;14.87;83.29;99276.25;4933377;29;20030;-73
2021/07/21 05:50:14;;;;;;;19.80;11.90;;;;;;;14.87;82.97;99269.28;4932858;29;20027;-75
2021/07/21 05:52:39;;;;;;;18.25;11.30;;;;;;;15.17;82.01;99264.97;4933043;29;20023;-74
2021/07/21 05:55:05;;;;;;;23.33;11.98;;;;;;;15.32;80.68;99268.03;4932815;29;20028;-75
2021/07/21 05:57:30;;;;;;;16.92;10.60;;;;;;;15.42;80.51;99275.56;4932740;29;20059;-74
2021/07/21 05:59:56;;;;;;;15.88;10.98;;;;;;;15.60;80.12;99279.34;4932948;29;20114;-74
2021/07/21 06:02:22;;;;;;;17.65;11.00;;;;;;;15.73;79.16;99266.81;4933735;29;20043;-74
2021/07/21 06:04:47;;;;;;;18.98;11.00;;;;;;;15.86;79.23;99273.38;4934515;29;20024;-74
2021/07/21 06:07:13;;;;;;;18.80;11.60;;;;;;;16.10;77.68;99279.59;4934352;29;20024;-75
2021/07/21 06:09:38;;;;;;;20.50;11.18;;;;;;;16.38;77.04;99278.66;4934557;29;20028;-74
2021/07/21 06:12:05;;;;;;;17.77;11.02;;;;;;;16.57;75.95;99279.75;4934649;29;20397;-76
2021/07/21 06:14:32;;;;;;;16.40;10.48;;;;;;;16.53;76.07;99287.75;4934479;29;20476;-75
2021/07/21 06:16:57;;;;;;;20.55;10.73;;;;;;;16.67;74.84;99291.59;4934351;29;20028;-76
2021/07/21 06:19:22;;;;;;;19.92;10.95;;;;;;;16.85;74.30;99299.75;4934296;29;20028;-75
2021/07/21 06:21:48;;;;;;;15.95;10.25;;;;;;;17.00;74.30;99298.38;4934555;29;20106;-75
2021/07/21 06:24:13;;;;;;;15.48;10.75;;;;;;;17.13;73.56;99299.63;4934376;29;20020;-75
2021/07/21 06:26:39;;;;;;;18.15;10.55;;;;;;;16.97;73.26;99301.97;4934274;29;20106;-75
2021/07/21 06:29:04;;;;;;;16.17;10.68;;;;;;;17.31;72.07;99298.09;4934492;29;20040;-75
2021/07/21 06:31:29;;;;;;;21.80;10.73;;;;;;;17.23;72.47;99303.63;4934360;29;20028;-75
2021/07/21 06:33:55;;;;;;;15.68;10.07;;;;;;;17.63;70.58;99305.59;4934412;29;20039;-74
2021/07/21 06:36:21;;;;;;;15.38;9.68;;;;;;;17.55;70.37;99312.91;4934180;29;20019;-74
2021/07/21 06:38:46;;;;;;;14.98;10.15;;;;;;;17.76;69.20;99310.41;4936354;29;20020;-76
2021/07/21 06:41:13;;;;;;;17.77;10.43;;;;;;;17.86;69.53;99317.00;4937769;29;20396;-76
2021/07/21 06:43:40;;;;;;;18.67;11.43;;;;;;;18.08;68.67;99312.59;4937966;29;20032;-75
2021/07/21 06:46:05;;;;;;;17.33;9.70;;;;;;;18.27;67.64;99312.72;4937693;29;20027;-76
2021/07/21 06:48:31;;;;;;;13.18;10.10;;;;;;;18.27;65.89;99314.50;4937786;29;20473;-75
2021/07/21 06:50:57;;;;;;;17.05;10.13;;;;;;;18.38;66.22;99320.16;4937714;29;20031;-75
2021/07/21 06:53:23;;;;;;;15.07;9.68;;;;;;;19.02;65.04;99317.47;4938035;29;20023;-75
2021/07/21 06:55:48;;;;;;;13.35;9.50;;;;;;;19.51;62.92;99317.88;4937581;29;20027;-75
2021/07/21 06:58:14;;;;;;;15.77;10.02;;;;;;;20.18;60.69;99321.78;4937626;29;20106;-74
2021/07/21 07:00:39;;;;;;;18.42;8.93;;;;;;;20.38;59.36;99323.44;4937460;29;20473;-77
2021/07/21 07:03:04;;;;;;;16.23;9.02;;;;;;;21.90;55.87;99319.00;4937608;29;20079;-77
2021/07/21 07:05:30;;;;;;;26.65;10.10;;;;;;;22.07;53.91;99326.84;4937417;29;20024;-76
2021/07/21 07:07:55;;;;;;;15.85;8.98;;;;;;;22.01;53.68;99324.56;4920232;29;20023;-77
2021/07/21 07:10:20;;;;;;;12.43;8.63;;;;;;;22.59;51.80;99323.91;4937522;29;20020;-77
2021/07/21 07:12:49;;;;;;;16.52;8.27;;;;;;;24.73;46.32;99321.03;4937437;29;20051;-77
2021/07/21 07:15:15;;;;;;;10.00;8.38;;;;;;;27.86;40.58;99315.66;4937095;29;20034;-75
2021/07/21 07:17:40;;;;;;;10.73;7.32;;;;;;;27.26;40.37;99324.84;4937202;29;20032;-75
2021/07/21 07:20:08;;;;;;;10.30;7.07;;;;;;;28.48;39.13;99327.50;4937212;29;20104;-76
2021/07/21 07:22:34;;;;;;;9.23;7.30;;;;;;;29.16;37.18;99328.00;4937182;29;20087;-75
2021/07/21 07:25:02;;;;;;;9.55;7.32;;;;;;;29.32;36.01;99323.00;4920126;29;20036;-75
2021/07/21 07:27:29;;;;;;;10.02;8.25;;;;;;;28.40;38.03;99317.47;4937000;29;20032;-77
2021/07/21 07:29:54;;;;;;;11.82;7.13;;;;;;;29.25;37.52;99320.97;4937238;29;20031;-75
2021/07/21 07:32:20;;;;;;;14.07;7.82;;;;;;;28.67;37.07;99313.44;4936998;29;20027;-77
2021/07/21 07:34:45;;;;;;;13.32;7.65;;;;;;;28.01;38.60;99312.72;4936929;29;20039;-76
2021/07/21 07:37:10;;;;;;;10.48;7.55;;;;;;;27.85;40.09;99305.09;4936794;29;20024;-75
2021/07/21 07:39:36;;;;;;;10.45;6.95;;;;;;;27.70;39.85;99304.50;4936811;29;20027;-77
2021/07/21 07:42:01;;;;;;;11.65;7.60;;;;;;;30.06;34.74;99297.78;4936979;29;20028;-75
2021/07/21 07:44:28;;;;;;;12.40;8.25;;;;;;;30.07;34.27;99304.81;4936736;29;20124;-77
2021/07/21 07:46:53;;;;;;;17.40;8.45;;;;;;;29.63;36.57;99299.81;4936610;29;20030;-77
2021/07/21 07:49:18;;;;;;;16.17;7.30;;;;;;;30.59;34.19;99302.78;4936263;29;20377;-77
2021/07/21 07:51:44;;;;;;;13.25;8.23;;;;;;;30.29;34.20;99296.59;4936593;29;20508;-77
2021/07/21 07:54:09;;;;;;;12.20;7.55;;;;;;;30.29;34.63;99301.09;4919465;29;20473;-77
2021/07/21 07:56:35;;;;;;;14.85;7.65;;;;;;;30.58;34.27;99295.75;4936709;29;20107;-77
2021/07/21 07:59:01;;;;;;;11.27;7.35;;;;;;;30.63;34.87;99305.03;4936604;29;20035;-77
2021/07/21 08:01:26;;;;;;;12.10;7.85;;;;;;;30.80;34.49;99294.59;4936508;29;20024;-77
2021/07/21 08:03:52;;;;;;;14.13;7.45;;;;;;;30.69;34.48;99298.25;4936427;29;20046;-76
2021/07/21 08:06:17;;;;;;;13.70;7.70;;;;;;;29.28;37.39;99294.88;4936281;29;20528;-76
2021/07/21 08:08:43;;;;;;;11.85;7.07;;;;;;;32.51;32.02;99287.84;4936447;29;20477;-75
2021/07/21 08:11:09;;;;;;;12.43;7.38;;;;;;;32.90;30.59;99286.50;4936429;29;20083;-77
2021/07/21 08:13:34;;;;;;;11.73;6.88;;;;;;;33.48;30.63;99285.81;4936390;29;20026;-75
2021/07/21 08:16:00;;;;;;;11.10;7.28;;;;;;;33.69;29.68;99284.56;4936023;29;20032;-78
2021/07/21 08:18:25;;;;;;;11.65;6.72;;;;;;;33.86;29.88;99289.00;4936152;29;20023;-76
2021/07/21 08:20:50;;;;;;;8.73;6.53;;;;;;;33.82;29.72;99290.31;4936100;29;20114;-75
2021/07/21 08:23:16;;;;;;;9.57;6.95;;;;;;;33.53;30.31;99285.34;4936195;29;20062;-78
2021/07/21 08:25:43;;;;;;;10.80;6.85;;;;;;;34.61;28.30;99286.25;4936088;29;20086;-75
2021/07/21 08:28:09;;;;;;;9.52;6.93;;;;;;;33.47;30.19;99281.47;4935956;29;20031;-75
2021/07/21 08:30:35;;;;;;;12.32;6.85;;;;;;;33.75;30.13;99283.91;4935888;29;20378;-76
2021/07/21 08:33:00;;;;;;;14.27;6.85;;;;;;;33.05;31.30;99285.91;4935943;29;20131;-75
2021/07/21 08:35:28;;;;;;;11.18;7.00;;;;;;;34.41;29.54;99280.34;4935610;29;20481;-77
2021/07/21 08:37:54;;;;;;;10.10;6.83;;;;;;;33.58;30.07;99272.25;4935806;29;20035;-77
2021/07/21 08:40:21;;;;;;;8.20;6.78;;;;;;;32.97;30.27;99279.47;4935682;29;20047;-77
2021/07/21 08:42:47;;;;;;;9.25;7.35;;;;;;;32.87;30.53;99278.72;4935821;29;20035;-77
2021/07/21 08:45:13;;;;;;;13.10;7.70;;;;;;;32.09;31.64;99283.06;4936020;29;20200;-77
2021/07/21 08:47:39;;;;;;;13.45;7.30;;;;;;;32.60;30.59;99276.19;4935484;29;20453;-76
2021/07/21 08:50:07;;;;;;;11.80;7.38;;;;;;;32.22;31.97;99273.66;4935678;29;20099;-77
2021/07/21 08:52:33;;;;;;;8.77;6.63;;;;;;;32.01;31.70;99270.44;4935607;29;20110;-77
2021/07/21 08:54:58;;;;;;;10.35;6.75;;;;;;;32.70;31.55;99275.09;4935731;29;20111;-77
2021/07/21 08:57:30;;;;;;;8.77;6.55;;;;;;;32.04;31.91;99277.31;4935411;29;20499;-75
2021/07/21 08:59:58;;;;;;;12.95;7.00;;;;;;;32.97;31.47;99279.47;4935264;29;20023;-75
2021/07/21 09:02:25;;;;;;;8.75;5.55;;;;;;;34.36;28.51;99271.94;4934791;29;20039;-75
2021/07/21 09:04:50;;;;;;;13.13;6.55;;;;;;;32.67;29.98;99282.59;4935420;29;20521;-75
2021/07/21 09:07:16;;;;;;;12.18;6.22;;;;;;;32.90;30.53;99278.44;4935206;29;20151;-77
2021/07/21 09:09:42;;;;;;;9.07;6.80;;;;;;;32.79;31.45;99269.78;4935434;29;20023;-75
2021/07/21 09:12:08;;;;;;;16.80;7.07;;;;;;;33.90;29.97;99265.31;4918253;29;20106;-77
2021/07/21 09:14:34;;;;;;;9.57;7.03;;;;;;;34.90;28.25;99263.31;4935124;29;20023;-77
2021/07/21 09:17:08;;;;;;;16.77;7.43;;;;;;;35.34;27.27;99265.59;4934822;29;20126;-75
2021/07/21 09:19:36;;;;;;;12.98;7.10;;;;;;;35.46;26.71;99264.22;4935117;29;20031;-75
2021/07/21 09:22:16;;;;;;;11.32;6.70;;;;;;;36.52;25.90;99267.13;4935140;29;20433;-77
2021/07/21 09:24:43;;;;;;;10.48;6.30;;;;;;;36.69;25.48;99272.38;4935103;29;20110;-77
2021/07/21 09:27:08;;;;;;;10.35;6.47;;;;;;;34.71;26.63;99275.31;4934845;29;20034;-77
2021/07/21 09:29:34;;;;;;;8.15;6.40;;;;;;;33.17;30.05;99273.88;4935034;29;20038;-75
2021/07/21 09:32:01;;;;;;;8.82;6.13;;;;;;;34.43;28.16;99262.19;4934849;29;20481;-77
2021/07/21 09:34:28;;;;;;;10.30;5.73;;;;;;;34.49;29.04;99261.53;4934979;29;20027;-75
2021/07/21 09:37:09;;;;;;;8.32;6.72;;;;;;;35.84;25.45;99264.38;4934744;29;20032;-77
2021/07/21 09:39:37;;;;;;;7.65;6.35;;;;;;;34.62;26.50;99270.94;4917809;29;20501;-78
2021/07/21 09:42:07;;;;;;;9.68;6.88;;;;;;;34.98;26.67;99261.50;4917842;29;20043;-77
2021/07/21 09:44:38;;;;;;;9.90;6.32;;;;;;;35.58;25.63;99262.81;4934671;29;20028;-75
2021/07/21 09:47:20;;;;;;;9.82;6.25;;;;;;;36.63;25.04;99259.59;4934678;29;20034;-76
2021/07/21 09:49:46;;;;;;;7.40;5.95;;;;;;;36.56;24.94;99261.38;4934757;29;20513;-76
2021/07/21 09:52:20;;;;;;;6.80;6.13;;;;;;;34.29;26.92;99254.78;4934812;29;20058;-77
2021/07/21 09:55:13;;;;;;;10.18;5.95;;;;;;;34.40;27.25;99261.69;4934664;29;20507;-76
2021/07/21 09:57:40;;;;;;;10.50;6.13;;;;;;;34.99;26.58;99257.78;4932977;29;20524;-77
2021/07/21 10:00:24;;;;;;;9.00;6.30;;;;;;;34.78;27.12;99257.47;4934599;29;20024;-76
2021/07/21 10:03:06;;;;;;;10.88;6.90;;;;;;;35.92;26.02;99254.34;4934637;29;20024;-77
2021/07/21 10:05:31;;;;;;;8.23;6.57;;;;;;;34.33;26.64;99266.91;4934595;29;20559;-75
2021/07/21 10:08:02;;;;;;;9.60;5.75;;;;;;;34.43;26.61;99262.19;4934605;29;20121;-77
2021/07/21 10:10:28;;;;;;;11.15;6.78;;;;;;;35.45;25.59;99259.81;4934594;29;20397;-77
2021/07/21 10:13:13;;;;;;;11.77;6.90;;;;;;;33.67;28.22;99265.06;4936846;29;20035;-75
2021/07/21 10:15:38;;;;;;;14.18;6.97;;;;;;;35.16;26.53;99257.75;4938124;29;20028;-75
2021/07/21 10:18:17;;;;;;;7.85;6.78;;;;;;;35.76;24.47;99254.47;4938343;29;20362;-75
2021/07/21 10:20:44;;;;;;;14.18;6.47;;;;;;;33.48;27.21;99256.28;4938158;29;20115;-75
2021/07/21 10:23:13;;;;;;;7.18;5.90;;;;;;;34.97;27.31;99251.75;4938355;29;20590;-76
2021/07/21 10:25:38;;;;;;;7.03;5.70;;;;;;;36.16;25.08;99244.44;4938330;29;20032;-75
2021/07/21 10:28:05;;;;;;;10.82;6.57;;;;;;;31.99;33.65;99262.53;4938172;29;20477;-75
2021/07/21 10:30:33;;;;;;;9.65;6.43;;;;;;;29.85;33.82;99257.84;4938594;29;20031;-75
2021/07/21 10:32:59;;;;;;;11.30;6.65;;;;;;;27.24;39.34;99254.94;4938167;29;20362;-75
2021/07/21 10:35:26;;;;;;;11.00;7.55;;;;;;;25.62;40.89;99260.00;4937906;29;20034;-75
2021/07/21 10:37:53;;;;;;;10.35;7.35;;;;;;;25.35;42.86;99259.34;4937845;29;20032;-75
2021/07/21 10:40:23;;;;;;;9.15;6.93;;;;;;;26.89;39.83;99250.53;4937885;29;20027;-75
2021/07/21 10:42:55;;;;;;;11.48;7.78;;;;;;;27.01;40.00;99248.72;4920875;29;20059;-74
2021/07/21 10:45:22;;;;;;;9.70;7.60;;;;;;;26.77;40.33;99250.63;4937783;29;20131;-74
2021/07/21 10:47:50;;;;;;;12.48;7.65;;;;;;;26.75;40.22;99256.06;4937779;29;20055;-75
2021/07/21 10:50:25;;;;;;;9.93;7.18;;;;;;;27.59;39.34;99252.09;4937729;29;20023;-75
2021/07/21 10:59:12;;;;;;;9.25;7.25;;;;;;;30.21;34.07;99243.81;4937849;29;20039;-75
2021/07/21 11:01:44;;;;;;;9.35;7.45;;;;;;;30.30;34.10;99239.44;4937469;29;20035;-75
2021/07/21 11:04:10;;;;;;;9.27;7.75;;;;;;;29.75;35.55;99241.78;4937540;29;20035;-75
2021/07/21 11:06:44;;;;;;;10.25;6.97;;;;;;;32.18;30.23;99239.25;4937286;29;20098;-75
2021/07/21 11:09:15;;;;;;;10.63;6.65;;;;;;;34.20;27.60;99229.72;4937495;29;20028;-75
2021/07/21 11:11:40;;;;;;;8.77;6.55;;;;;;;33.36;29.69;99236.03;4937363;29;20130;-75
2021/07/21 11:14:08;;;;;;;8.93;6.68;;;;;;;33.34;29.21;99232.66;4937316;29;20110;-75
2021/07/21 11:16:50;;;;;;;13.00;6.72;;;;;;;33.36;28.07;99233.34;4937114;29;20032;-75
2021/07/21 11:19:27;;;;;;;7.60;6.60;;;;;;;30.66;32.26;99239.69;4937378;29;20027;-75
2021/07/21 11:21:57;;;;;;;15.45;7.05;;;;;;;28.52;36.57;99237.41;4937117;29;20078;-75
2021/07/21 11:24:23;;;;;;;11.60;7.40;;;;;;;29.48;34.85;99236.19;4936615;29;20023;-75
2021/07/21 11:26:50;;;;;;;9.68;7.60;;;;;;;27.44;38.38;99239.19;4936860;29;20024;-75
2021/07/21 11:29:24;;;;;;;14.35;7.32;;;;;;;27.44;39.44;99233.88;4937061;29;20047;-75
2021/07/21 11:31:49;;;;;;;12.55;7.47;;;;;;;27.54;39.45;99234.81;4936959;29;20031;-75
2021/07/21 11:34:26;;;;;;;14.20;8.27;;;;;;;28.61;36.48;99231.28;4937016;29;20444;-77
2021/07/21 11:36:56;;;;;;;10.50;7.68;;;;;;;31.40;32.98;99229.03;4936855;29;20551;-76
2021/07/21 11:39:44;;;;;;;9.63;7.38;;;;;;;31.33;32.73;99225.28;4937046;29;20024;-77
2021/07/21 11:45:02;;;;;;;10.63;7.60;;;;;;;29.60;34.48;99219.13;4936993;29;20036;-75
2021/07/21 11:47:34;;;;;;;12.30;7.40;;;;;;;31.45;32.93;99213.34;4936607;29;20046;-75
2021/07/21 11:50:00;;;;;;;10.60;7.35;;;;;;;33.12;28.78;99211.75;4936892;29;20581;-76
2021/07/21 11:52:25;;;;;;;9.07;6.60;;;;;;;35.01;28.10;99211.84;4936799;29;20106;-77
2021/07/21 11:54:52;;;;;;;9.88;7.47;;;;;;;34.57;26.71;99208.69;4936462;29;20042;-77
2021/07/21 11:57:23;;;;;;;18.73;8.10;;;;;;;29.51;33.83;99218.09;4936534;29;20473;-76
2021/07/21 11:59:53;;;;;;;15.38;8.40;;;;;;;28.13;36.81;99223.75;4936497;29;20036;-75
2021/07/21 12:02:20;;;;;;;13.55;8.00;;;;;;;26.53;39.42;99222.31;4936651;29;20032;-77
2021/07/21 12:04:50;;;;;;;11.15;8.65;;;;;;;27.59;37.82;99217.50;4936349;29;20493;-75
2021/07/21 12:07:21;;;;;;;13.20;8.68;;;;;;;28.49;35.99;99216.34;4936393;29;20133;-77
2021/07/21 12:09:51;;;;;;;13.35;7.97;;;;;;;29.02;36.92;99208.25;4936417;29;20024;-77
2021/07/21 12:12:19;;;;;;;13.70;8.60;;;;;;;29.47;36.44;99206.00;4936267;29;20031;-75
2021/07/21 12:14:50;;;;;;;11.60;8.32;;;;;;;28.52;37.80;99216.91;4936192;29;20038;-76
2021/07/21 12:17:16;;;;;;;10.65;8.20;;;;;;;29.52;35.65;99205.56;4936087;29;20035;-75
2021/07/21 12:19:58;;;;;;;10.38;7.88;;;;;;;28.38;38.21;99210.13;4936426;29;20023;-75
2021/07/21 12:22:30;;;;;;;11.50;7.97;;;;;;;28.63;36.66;99206.19;4935982;29;20058;-75
2021/07/21 12:24:58;;;;;;;13.05;8.52;;;;;;;28.59;36.85;99206.59;4936030;29;20492;-75
2021/07/21 12:27:31;;;;;;;12.52;8.57;;;;;;;27.81;37.21;99216.63;4935917;29;20496;-78
2021/07/21 12:30:01;;;;;;;11.88;9.60;;;;;;;28.56;36.80;99209.50;4935991;29;20023;-79
2021/07/21 12:32:27;;;;;;;14.57;9.07;;;;;;;28.07;37.28;99206.47;4936014;29;20028;-77
2021/07/21 12:34:53;;;;;;;15.73;10.02;;;;;;;27.21;39.32;99207.25;4935838;29;20023;-77
2021/07/21 12:37:21;;;;;;;16.60;9.73;;;;;;;26.77;39.50;99213.41;4935857;29;20055;-77
2021/07/21 12:39:48;;;;;;;19.00;9.55;;;;;;;27.52;39.64;99204.81;4935717;29;20027;-77
2021/07/21 12:42:19;;;;;;;12.98;9.95;;;;;;;26.40;39.01;99206.44;4935795;29;20027;-78
2021/07/21 12:44:49;;;;;;;20.95;10.43;;;;;;;27.57;38.58;99199.97;4935681;29;20024;-78
2021/07/21 12:47:16;;;;;;;11.82;8.52;;;;;;;28.34;37.99;99208.69;4935634;29;20531;-75
2021/07/21 12:49:44;;;;;;;12.55;9.30;;;;;;;28.29;36.34;99205.53;4935729;29;20048;-77
2021/07/21 12:52:14;;;;;;;16.40;9.02;;;;;;;27.93;36.72;99204.94;4935614;29;20098;-75
2021/07/21 12:54:49;;;;;;;11.68;8.93;;;;;;;27.48;36.95;99200.72;4937559;29;20054;-75
2021/07/21 12:57:29;;;;;;;14.13;9.55;;;;;;;27.67;38.02;99204.41;4941737;29;20070;-77
2021/07/21 13:00:03;;;;;;;12.18;9.23;;;;;;;28.29;37.70;99196.69;4919068;29;20040;-78
2021/07/21 13:02:28;;;;;;;22.17;9.05;;;;;;;28.45;36.21;99198.91;4927057;29;20035;-75
2021/07/21 13:04:53;;;;;;;17.90;9.10;;;;;;;26.22;39.14;99202.53;4907192;29;20047;-75
2021/07/21 13:07:21;;;;;;;12.27;8.70;;;;;;;26.15;41.11;99193.31;4925327;29;20027;-75
2021/07/21 13:09:53;;;;;;;15.93;9.35;;;;;;;26.29;40.22;99193.09;4925277;29;20111;-75
2021/07/21 13:12:20;;;;;;;13.98;9.18;;;;;;;27.41;38.33;99190.56;4924140;29;20039;-78
2021/07/21 13:14:56;;;;;;;17.75;13.63;;;;;;;27.76;38.41;99186.88;4930243;29;20028;-75
2021/07/21 13:17:23;;;;;;;16.50;8.48;;;;;;;27.99;38.80;99181.44;4941687;29;20568;-75
2021/07/21 13:20:08;;;;;;;11.95;9.20;;;;;;;28.16;36.75;99183.53;4944265;28;20038;-78
2021/07/21 13:22:34;;;;;;;15.35;9.57;;;;;;;27.77;38.70;99182.38;4946174;29;20027;-77
2021/07/21 13:25:13;;;;;;;14.50;9.90;;;;;;;26.68;38.55;99177.75;4940353;29;20027;-76
2021/07/21 13:27:39;;;;;;;16.27;9.18;;;;;;;26.84;39.80;99188.03;4934799;29;20500;-76
2021/07/21 13:30:21;;;;;;;15.05;9.13;;;;;;;27.50;37.99;99177.47;4934133;29;20074;-77
2021/07/21 13:32:47;;;;;;;11.90;8.45;;;;;;;28.04;37.98;99173.91;4918002;29;20055;-76
2021/07/21 13:35:13;;;;;;;15.63;8.43;;;;;;;28.02;36.97;99167.88;4934234;29;20027;-76
2021/07/21 13:37:38;;;;;;;18.20;9.23;;;;;;;27.12;38.48;99173.41;4934718;29;20082;-75
2021/07/21 13:40:09;;;;;;;14.63;9.60;;;;;;;27.19;38.75;99171.13;4934626;29;20052;-75
2021/07/21 13:42:35;;;;;;;10.43;8.73;;;;;;;27.03;39.55;99171.44;4930671;29;20477;-76
2021/07/21 13:45:06;;;;;;;10.40;8.57;;;;;;;27.01;39.14;99168.91;4933202;29;20106;-75
2021/07/21 13:47:33;;;;;;;9.98;8.18;;;;;;;26.39;38.55;99166.66;4942031;28;20019;-76
2021/07/21 13:50:07;;;;;;;12.18;8.07;;;;;;;26.27;39.86;99163.16;4945830;29;20043;-75
2021/07/21 13:52:33;;;;;;;18.90;8.25;;;;;;;26.79;38.94;99169.78;4936779;28;20041;-74
2021/07/21 13:55:00;;;;;;;9.25;7.88;;;;;;;26.22;38.82;99175.94;4938045;29;20023;-77
2021/07/21 13:57:25;;;;;;;13.07;8.32;;;;;;;26.64;37.59;99166.53;4944364;28;20422;-76
2021/07/21 13:59:50;;;;;;;14.65;8.23;;;;;;;26.35;38.87;99166.09;4934356;29;20135;-74
2021/07/21 14:02:21;;;;;;;11.73;7.93;;;;;;;27.41;37.94;99166.59;4934029;29;20032;-77
2021/07/21 14:04:47;;;;;;;10.60;8.70;;;;;;;27.49;36.51;99167.78;4933580;29;20039;-74
2021/07/21 14:07:13;;;;;;;12.00;7.68;;;;;;;27.24;38.22;99175.09;4934504;29;20023;-77
2021/07/21 14:09:38;;;;;;;13.70;8.27;;;;;;;27.24;37.34;99164.47;4920513;29;20032;-77
2021/07/21 14:12:04;;;;;;;12.13;8.18;;;;;;;27.42;36.55;99170.97;4934412;29;20023;-77
2021/07/21 14:14:29;;;;;;;13.82;8.73;;;;;;;27.10;38.55;99167.38;4934359;29;20132;-78
2021/07/21 14:16:55;;;;;;;8.93;7.57;;;;;;;26.84;37.83;99166.75;4933130;29;20071;-78
2021/07/21 14:19:21;;;;;;;14.32;7.47;;;;;;;26.63;38.72;99163.97;4933997;29;20512;-77
2021/07/21 14:21:49;;;;;;;13.23;8.40;;;;;;;26.62;37.69;99167.59;4921285;29;20103;-76
2021/07/21 14:24:15;;;;;;;10.90;7.75;;;;;;;26.76;37.97;99161.19;4933111;29;20035;-75
2021/07/21 14:26:41;;;;;;;13.90;7.68;;;;;;;26.53;37.44;99162.97;4933787;29;20385;-75
2021/07/21 14:29:07;;;;;;;10.05;8.13;;;;;;;26.18;39.51;99163.84;4933652;29;20038;-76
2021/07/21 14:31:33;;;;;;;10.85;6.97;;;;;;;26.39;38.74;99156.88;4934222;29;20035;-74
2021/07/21 14:33:59;;;;;;;15.80;7.68;;;;;;;25.88;39.04;99157.25;4934235;29;20031;-77
2021/07/21 14:36:24;;;;;;;10.27;6.90;;;;;;;26.76;39.73;99158.53;4917046;29;20028;-75
2021/07/21 14:38:51;;;;;;;13.60;7.53;;;;;;;26.83;39.09;99155.25;4933567;29;20023;-78
2021/07/21 14:41:18;;;;;;;9.38;7.20;;;;;;;26.53;40.07;99147.03;4933782;29;20489;-77
2021/07/21 14:43:43;;;;;;;9.77;6.82;;;;;;;27.32;39.24;99145.19;4933006;29;20074;-76
2021/07/21 14:46:11;;;;;;;11.50;7.70;;;;;;;27.50;37.55;99143.69;4932519;29;20023;-75
2021/07/21 14:48:36;;;;;;;11.95;7.10;;;;;;;27.02;38.17;99148.47;4934027;29;20043;-75
2021/07/21 14:51:03;;;;;;;8.65;7.05;;;;;;;27.77;38.53;99150.41;4933229;29;20401;-75
2021/07/21 14:53:29;;;;;;;10.27;7.47;;;;;;;28.20;35.79;99147.66;4934096;29;20031;-75
2021/07/21 14:55:54;;;;;;;8.13;6.88;;;;;;;28.06;36.85;99142.66;4931528;29;20087;-76
2021/07/21 14:58:19;;;;;;;13.35;7.40;;;;;;;28.01;37.09;99143.03;4916950;29;20111;-77
2021/07/21 15:00:46;;;;;;;11.93;7.35;;;;;;;27.30;37.92;99147.97;4937194;29;20111;-76
2021/07/21 15:03:12;;;;;;;13.77;7.47;;;;;;;27.27;38.96;99148.25;4936628;29;20405;-75
2021/07/21 15:05:38;;;;;;;8.30;6.70;;;;;;;27.97;37.91;99146.09;4937465;29;20051;-77
2021/07/21 15:08:04;;;;;;;10.18;6.95;;;;;;;28.30;36.32;99150.38;4937493;29;20118;-76
2021/07/21 15:10:30;;;;;;;7.68;6.47;;;;;;;28.34;36.96;99144.69;4937456;29;20031;-77
2021/07/21 15:12:56;;;;;;;10.55;7.30;;;;;;;27.64;37.20;99145.22;4936952;29;20031;-75
2021/07/21 15:15:22;;;;;;;10.52;6.53;;;;;;;26.90;37.84;99148.50;4936613;29;20123;-75
2021/07/21 15:17:48;;;;;;;7.63;6.57;;;;;;;27.08;35.13;99145.38;4937390;29;20074;-77
2021/07/21 15:20:14;;;;;;;8.35;6.72;;;;;;;27.29;36.71;99146.31;4936846;29;20038;-77
2021/07/21 15:22:40;;;;;;;9.23;7.07;;;;;;;26.44;37.14;99150.41;4936537;29;20481;-75
2021/07/21 15:25:06;;;;;;;10.40;7.22;;;;;;;26.06;36.95;99144.41;4918010;29;20043;-74
2021/07/21 15:27:32;;;;;;;10.07;6.72;;;;;;;26.85;36.34;99148.03;4935059;29;20028;-75
2021/07/21 15:29:58;;;;;;;14.80;7.15;;;;;;;27.36;38.42;99147.47;4918399;29;20087;-77
2021/07/21 15:32:23;;;;;;;8.38;6.80;;;;;;;26.78;39.31;99145.97;4935292;29;20481;-75
2021/07/21 15:34:49;;;;;;;8.85;6.93;;;;;;;26.74;40.80;99148.03;4935420;29;20023;-75
2021/07/21 15:37:14;;;;;;;10.80;6.80;;;;;;;27.44;38.48;99149.53;4944803;29;20074;-75
2021/07/21 15:39:40;;;;;;;11.23;6.38;;;;;;;27.92;38.31;99142.00;4944688;28;20031;-75
2021/07/21 15:42:06;;;;;;;16.40;7.38;;;;;;;26.92;38.15;99154.53;4919888;29;20122;-77
2021/07/21 15:44:32;;;;;;;10.10;7.68;;;;;;;27.34;39.12;99149.44;4936793;29;20389;-75
2021/07/21 15:46:58;;;;;;;8.82;7.13;;;;;;;27.82;38.69;99143.75;4936761;29;20055;-76
2021/07/21 15:49:25;;;;;;;15.95;7.40;;;;;;;27.41;36.93;99145.31;4936755;29;20024;-75
2021/07/21 15:51:51;;;;;;;10.38;7.53;;;;;;;27.60;38.15;99149.09;4936836;29;20106;-75